createdAt,value
2024-04-07T00:02:00.069Z,99946.97
2024-04-07T00:04:26.149Z,99956.09
2024-04-07T00:06:52.787Z,99961.59
2024-04-07T00:09:18.903Z,99958.97
2024-04-07T00:11:45.963Z,99918.66
2024-04-07T00:14:12.137Z,99927.50
2024-04-07T00:16:38.420Z,99962.56
2024-04-07T00:19:04.497Z,99960.38
2024-04-07T00:21:31.181Z,99967.97
2024-04-07T00:23:57.814Z,99962.25
2024-04-07T00:26:24.290Z,99901.31
2024-04-07T00:28:51.039Z,99956.00
2024-04-07T00:31:17.458Z,99958.94
2024-04-07T00:33:43.598Z,99952.84
2024-04-07T00:36:09.958Z,99964.22
2024-04-07T00:38:36.383Z,99942.88
2024-04-07T00:41:03.107Z,99944.53
2024-04-07T00:43:29.298Z,99935.69
2024-04-07T00:45:56.430Z,99972.13
2024-04-07T00:48:22.947Z,99954.63
2024-04-07T00:50:51.164Z,99958.66
2024-04-07T00:53:17.725Z,99971.84
2024-04-07T00:55:45.401Z,99990.00
2024-04-07T00:58:12.787Z,99991.81
2024-04-07T01:00:42.841Z,99996.25
2024-04-07T01:03:10.308Z,100011.50
2024-04-07T01:05:40.948Z,100011.22
2024-04-07T01:08:07.782Z,100013.97
2024-04-07T01:10:34.312Z,100022.56
2024-04-07T01:13:03.180Z,100023.69
2024-04-07T01:15:29.765Z,100008.16
2024-04-07T01:17:57.521Z,100024.91
2024-04-07T01:20:24.728Z,100021.88
2024-04-07T01:22:51.105Z,100014.84
2024-04-07T01:25:18.559Z,100046.03
2024-04-07T01:27:46.651Z,100040.88
2024-04-07T01:30:13.072Z,100024.69
2024-04-07T01:32:41.514Z,100054.50
2024-04-07T01:35:07.956Z,100054.06
2024-04-07T01:37:34.025Z,100052.78
2024-04-07T01:40:03.259Z,100038.69
2024-04-07T01:42:30.187Z,100048.25
2024-04-07T01:44:56.704Z,100068.50
2024-04-07T01:47:22.833Z,100091.28
2024-04-07T01:49:49.396Z,100095.88
2024-04-07T01:52:15.636Z,100094.47
2024-04-07T01:54:42.015Z,100121.97
2024-04-07T01:57:08.112Z,100121.28
2024-04-07T01:59:35.192Z,100124.19
2024-04-07T02:02:01.266Z,100127.28
2024-04-07T02:04:28.584Z,100137.66
2024-04-07T02:06:54.717Z,100132.28
2024-04-07T02:09:21.486Z,100140.59
2024-04-07T02:11:47.714Z,100130.31
2024-04-07T02:14:13.872Z,100134.94
2024-04-07T02:16:44.323Z,100185.88
2024-04-07T02:19:11.552Z,100183.50
2024-04-07T02:21:38.128Z,100190.03
2024-04-07T02:24:05.245Z,100206.41
2024-04-07T02:26:31.856Z,100197.22
2024-04-07T02:28:58.390Z,100216.41
2024-04-07T02:31:25.381Z,100226.50
2024-04-07T02:33:52.411Z,100240.34
2024-04-07T02:36:18.570Z,100229.13
2024-04-07T02:38:44.847Z,100237.13
2024-04-07T02:41:11.675Z,100262.66
2024-04-07T02:43:38.569Z,100269.28
2024-04-07T02:46:23.254Z,100275.34
2024-04-07T02:48:49.618Z,100277.44
2024-04-07T02:51:16.642Z,100285.72
2024-04-07T02:53:42.817Z,100302.03
2024-04-07T02:56:09.032Z,100311.00
2024-04-07T02:58:35.391Z,100297.66
2024-04-07T03:01:05.424Z,100313.44
2024-04-07T03:03:31.770Z,100296.75
2024-04-07T03:05:58.453Z,100295.22
2024-04-07T03:08:25.198Z,100329.69
2024-04-07T03:10:57.634Z,100335.47
2024-04-07T03:13:23.755Z,100343.88
2024-04-07T03:15:50.223Z,100343.28
2024-04-07T03:18:16.973Z,100341.16
2024-04-07T03:20:43.332Z,100348.34
2024-04-07T03:23:09.640Z,100351.47
2024-04-07T03:25:36.796Z,100320.28
2024-04-07T03:28:03.272Z,100370.41
2024-04-07T03:30:29.860Z,100374.25
2024-04-07T03:32:56.069Z,100369.25
2024-04-07T03:35:22.382Z,100359.59
2024-04-07T03:37:48.653Z,100373.13
2024-04-07T03:40:16.292Z,100387.72
2024-04-07T03:42:43.499Z,100409.00
2024-04-07T03:45:10.124Z,100405.88
2024-04-07T03:47:36.309Z,100399.66
2024-04-07T03:50:02.897Z,100416.00
2024-04-07T03:52:29.268Z,100439.91
2024-04-07T03:54:55.494Z,100450.56
2024-04-07T03:57:22.013Z,100445.56
2024-04-07T03:59:50.200Z,100444.13
2024-04-07T04:02:21.231Z,100444.38
2024-04-07T04:04:55.535Z,100440.31
2024-04-07T04:07:28.024Z,100438.06
2024-04-07T04:09:54.980Z,100415.59
2024-04-07T04:12:24.027Z,100407.94
2024-04-07T04:14:52.056Z,100414.50
2024-04-07T04:17:18.405Z,100434.94
2024-04-07T04:19:44.360Z,100439.25
2024-04-07T04:22:10.863Z,100452.13
2024-04-07T04:24:37.169Z,100435.31
2024-04-07T04:27:03.667Z,100423.22
2024-04-07T04:29:31.248Z,100411.53
2024-04-07T04:31:58.403Z,100408.19
2024-04-07T04:34:24.479Z,100420.59
2024-04-07T04:36:52.146Z,100425.84
2024-04-07T04:39:18.431Z,100456.06
2024-04-07T04:41:46.373Z,100479.22
2024-04-07T04:44:13.085Z,100473.59
2024-04-07T04:46:41.176Z,100493.91
2024-04-07T04:49:08.462Z,100486.94
2024-04-07T04:51:35.024Z,100495.22
2024-04-07T04:54:01.360Z,100479.91
2024-04-07T04:56:27.519Z,100478.13
2024-04-07T04:58:57.096Z,100473.47
2024-04-07T05:01:24.168Z,100467.59
2024-04-07T05:03:50.288Z,100471.09
2024-04-07T05:06:19.316Z,100461.41
2024-04-07T05:08:46.006Z,100440.13
2024-04-07T05:11:12.398Z,100448.91
2024-04-07T05:13:38.375Z,100451.75
2024-04-07T05:16:05.403Z,100469.69
2024-04-07T05:18:32.679Z,100458.22
2024-04-07T05:21:02.586Z,100446.63
2024-04-07T05:23:29.336Z,100443.19
2024-04-07T05:25:55.807Z,100445.81
2024-04-07T05:28:21.871Z,100444.94
2024-04-07T05:30:48.209Z,100443.28
2024-04-07T05:33:14.122Z,100438.63
2024-04-07T05:35:40.445Z,100428.72
2024-04-07T05:38:06.591Z,100437.38
2024-04-07T05:40:33.350Z,100434.31
2024-04-07T05:42:59.677Z,100431.69
2024-04-07T05:45:25.747Z,100434.56
2024-04-07T05:47:53.296Z,100429.78
2024-04-07T05:50:19.585Z,100429.56
2024-04-07T05:52:45.922Z,100435.75
2024-04-07T05:55:11.983Z,100443.88
2024-04-07T05:57:39.563Z,100440.78
2024-04-07T06:00:08.686Z,100437.69
2024-04-07T06:02:35.164Z,100451.06
2024-04-07T06:05:01.334Z,100448.31
2024-04-07T06:07:27.763Z,100455.47
2024-04-07T06:09:53.985Z,100469.72
2024-04-07T06:12:20.366Z,100473.66
2024-04-07T06:14:47.243Z,100475.09
2024-04-07T06:17:13.697Z,100469.94
2024-04-07T06:19:39.910Z,100480.09
2024-04-07T06:22:06.076Z,100490.94
2024-04-07T06:24:32.256Z,100492.88
2024-04-07T06:26:58.696Z,100496.34
2024-04-07T06:29:25.072Z,100485.94
2024-04-07T06:31:52.622Z,100474.25
2024-04-07T06:34:18.728Z,100484.75
2024-04-07T06:36:45.151Z,100501.25
2024-04-07T06:39:11.641Z,100498.63
2024-04-07T06:41:38.031Z,100482.59
2024-04-07T06:44:04.480Z,100493.22
2024-04-07T06:46:30.856Z,100503.16
2024-04-07T06:48:57.583Z,100512.38
2024-04-07T06:51:23.929Z,100519.22
2024-04-07T06:53:50.028Z,100522.31
2024-04-07T06:56:17.905Z,100511.78
2024-04-07T06:58:44.004Z,100523.22
2024-04-07T07:01:10.420Z,100506.06
2024-04-07T07:03:36.691Z,100534.34
2024-04-07T07:06:04.301Z,100516.50
2024-04-07T07:08:32.641Z,100531.81
2024-04-07T07:10:59.978Z,100531.31
2024-04-07T07:13:28.033Z,100531.06
2024-04-07T07:15:55.806Z,100530.13
2024-04-07T07:18:22.234Z,100510.75
2024-04-07T07:20:48.748Z,100534.34
2024-04-07T07:23:15.986Z,100526.78
2024-04-07T07:25:43.517Z,100532.91
2024-04-07T07:28:09.752Z,100542.94
2024-04-07T07:30:36.278Z,100543.44
2024-04-07T07:33:02.468Z,100549.88
2024-04-07T07:35:28.604Z,100548.34
2024-04-07T07:37:54.837Z,100546.31
2024-04-07T07:40:21.663Z,100539.63
2024-04-07T07:42:48.302Z,100547.75
2024-04-07T07:45:16.728Z,100557.06
2024-04-07T07:47:43.014Z,100560.19
2024-04-07T07:50:09.507Z,100572.00
2024-04-07T07:52:35.628Z,100571.91
2024-04-07T07:55:02.041Z,100574.41
2024-04-07T07:57:28.826Z,100580.75
2024-04-07T07:59:59.750Z,100584.09
2024-04-07T08:02:28.197Z,100588.75
2024-04-07T08:04:54.890Z,100581.81
2024-04-07T08:07:20.961Z,100583.84
2024-04-07T08:09:47.330Z,100575.81
2024-04-07T08:12:15.448Z,100582.75
2024-04-07T08:14:46.212Z,100579.47
2024-04-07T08:17:15.346Z,100593.25
2024-04-07T08:19:44.170Z,100582.41
2024-04-07T08:22:10.673Z,100594.03
2024-04-07T08:24:37.238Z,100592.41
2024-04-07T08:27:04.360Z,100597.00
2024-04-07T08:29:30.724Z,100587.00
2024-04-07T08:31:57.695Z,100580.09
2024-04-07T08:34:23.835Z,100580.75
2024-04-07T08:36:50.202Z,100573.00
2024-04-07T08:39:19.143Z,100570.78
2024-04-07T08:41:46.620Z,100578.00
2024-04-07T08:44:13.885Z,100582.72
2024-04-07T08:46:43.641Z,100591.91
2024-04-07T08:49:14.122Z,100594.97
2024-04-07T08:51:41.733Z,100601.94
2024-04-07T08:54:08.453Z,100603.19
2024-04-07T08:56:39.610Z,100599.53
2024-04-07T08:59:11.309Z,100602.09
2024-04-07T09:01:40.861Z,100592.91
2024-04-07T09:04:09.487Z,100594.56
2024-04-07T09:06:36.473Z,100590.63
2024-04-07T09:09:04.790Z,100589.81
2024-04-07T09:11:35.906Z,100596.50
2024-04-07T09:14:03.009Z,100583.16
2024-04-07T09:16:29.109Z,100598.16
2024-04-07T09:18:57.888Z,100601.41
2024-04-07T09:21:25.387Z,100600.09
2024-04-07T09:23:53.775Z,100604.53
2024-04-07T09:26:20.129Z,100599.41
2024-04-07T09:28:46.820Z,100591.75
2024-04-07T09:31:15.312Z,100597.69
2024-04-07T09:33:44.853Z,100596.28
2024-04-07T09:36:10.930Z,100611.06
2024-04-07T09:38:37.108Z,100607.88
2024-04-07T09:41:04.188Z,100606.91
2024-04-07T09:43:32.268Z,100596.63
2024-04-07T09:46:00.104Z,100590.78
2024-04-07T09:48:28.414Z,100597.03
2024-04-07T09:50:58.507Z,100593.16
2024-04-07T09:53:35.098Z,100593.03
2024-04-07T09:56:04.578Z,100587.91
2024-04-07T09:58:31.255Z,100601.13
2024-04-07T10:00:58.005Z,100603.50
2024-04-07T10:03:24.630Z,100608.34
2024-04-07T10:05:50.711Z,100599.69
2024-04-07T10:08:16.876Z,100613.84
2024-04-07T10:10:47.136Z,100611.59
2024-04-07T10:13:23.257Z,100609.31
2024-04-07T10:15:49.989Z,100608.53
2024-04-07T10:18:17.507Z,100612.13
2024-04-07T10:20:43.632Z,100610.47
2024-04-07T10:23:13.286Z,100610.47
2024-04-07T10:25:46.384Z,100608.00
2024-04-07T10:28:12.935Z,100608.69
2024-04-07T10:30:50.364Z,100604.69
2024-04-07T10:33:16.679Z,100600.53
2024-04-07T10:35:52.475Z,100613.47
2024-04-07T10:38:18.894Z,100606.13
2024-04-07T10:40:45.146Z,100604.31
2024-04-07T10:43:11.573Z,100607.69
2024-04-07T10:45:38.072Z,100599.78
2024-04-07T10:48:10.156Z,100601.81
2024-04-07T10:50:37.083Z,100609.88
2024-04-07T10:53:08.363Z,100607.19
2024-04-07T10:55:34.947Z,100600.78
2024-04-07T10:58:01.620Z,100610.38
2024-04-07T11:00:27.840Z,100609.06
2024-04-07T11:02:54.735Z,100595.66
2024-04-07T11:05:22.594Z,100590.28
2024-04-07T11:07:51.938Z,100598.53
2024-04-07T11:10:18.091Z,100605.13
2024-04-07T11:12:44.456Z,100590.28
2024-04-07T11:15:17.502Z,100587.03
2024-04-07T11:17:44.527Z,100597.09
2024-04-07T11:20:11.883Z,100591.63
2024-04-07T11:22:39.413Z,100594.13
2024-04-07T11:25:08.803Z,100586.72
2024-04-07T11:27:35.319Z,100596.72
2024-04-07T11:30:01.857Z,100596.41
2024-04-07T11:32:28.456Z,100584.97
2024-04-07T11:34:55.135Z,100582.38
2024-04-07T11:37:25.886Z,100581.09
2024-04-07T11:39:56.807Z,100582.31
2024-04-07T11:42:25.071Z,100582.06
2024-04-07T11:44:51.148Z,100575.81
2024-04-07T11:47:17.672Z,100571.63
2024-04-07T11:49:44.091Z,100577.06
2024-04-07T11:52:10.612Z,100569.31
2024-04-07T11:54:36.685Z,100580.34
2024-04-07T11:57:04.287Z,100573.72
2024-04-07T11:59:32.479Z,100563.13
2024-04-07T12:02:00.288Z,100567.13
2024-04-07T12:04:26.403Z,100563.13
2024-04-07T12:06:52.805Z,100569.16
2024-04-07T12:09:18.990Z,100562.63
2024-04-07T12:11:45.398Z,100551.34
2024-04-07T12:14:12.138Z,100546.19
2024-04-07T12:16:39.490Z,100555.13
2024-04-07T12:19:05.571Z,100551.69
2024-04-07T12:21:31.957Z,100548.13
2024-04-07T12:23:58.870Z,100551.59
2024-04-07T12:26:25.271Z,100553.13
2024-04-07T12:28:51.414Z,100562.00
2024-04-07T12:31:18.832Z,100552.66
2024-04-07T12:33:47.029Z,100551.63
2024-04-07T12:36:13.496Z,100547.69
2024-04-07T12:38:39.598Z,100543.50
2024-04-07T12:41:05.979Z,100543.75
2024-04-07T12:43:32.146Z,100536.22
2024-04-07T12:45:58.509Z,100527.66
2024-04-07T12:48:25.767Z,100556.53
2024-04-07T12:50:52.858Z,100536.66
2024-04-07T12:53:18.948Z,100540.66
2024-04-07T12:55:45.427Z,100533.63
2024-04-07T12:58:11.617Z,100537.31
2024-04-07T13:00:41.117Z,100536.34
2024-04-07T13:03:07.379Z,100546.28
2024-04-07T13:05:34.402Z,100531.34
2024-04-07T13:08:00.722Z,100530.34
2024-04-07T13:10:27.263Z,100536.28
2024-04-07T13:12:54.015Z,100533.44
2024-04-07T13:15:20.468Z,100532.81
2024-04-07T13:17:46.538Z,100531.50
2024-04-07T13:20:12.969Z,100531.19
2024-04-07T13:22:41.398Z,100517.28
2024-04-07T13:25:07.819Z,100518.00
2024-04-07T13:27:34.064Z,100518.00
2024-04-07T13:30:00.749Z,100518.34
2024-04-07T13:32:26.817Z,100503.81
2024-04-07T13:34:53.165Z,100505.00
2024-04-07T13:37:19.328Z,100510.09
2024-04-07T13:39:48.872Z,100517.38
2024-04-07T13:42:14.972Z,100513.53
2024-04-07T13:44:41.347Z,100512.34
2024-04-07T13:47:07.439Z,100494.91
2024-04-07T13:49:33.837Z,100491.84
2024-04-07T13:52:00.473Z,100496.72
2024-04-07T13:54:26.921Z,100492.63
2024-04-07T13:56:53.666Z,100500.91
2024-04-07T13:59:20.027Z,100499.25
2024-04-07T14:01:46.088Z,100498.53
2024-04-07T14:04:12.588Z,100486.81
2024-04-07T14:06:38.789Z,100503.06
2024-04-07T14:09:05.843Z,100494.69
2024-04-07T14:11:31.931Z,100503.69
2024-04-07T14:13:59.014Z,100489.81
2024-04-07T14:16:25.207Z,100485.03
2024-04-07T14:18:52.070Z,100471.72
2024-04-07T14:21:18.217Z,100488.66
2024-04-07T14:23:45.441Z,100471.97
2024-04-07T14:26:12.382Z,100480.69
2024-04-07T14:28:39.564Z,100471.28
2024-04-07T14:31:06.359Z,100467.97
2024-04-07T14:33:32.760Z,100475.53
2024-04-07T14:35:58.872Z,100476.66
2024-04-07T14:38:25.286Z,100462.72
2024-04-07T14:40:51.422Z,100461.16
2024-04-07T14:43:17.891Z,100455.69
2024-04-07T14:45:53.704Z,100453.59
2024-04-07T14:48:20.819Z,100456.44
2024-04-07T14:50:48.257Z,100439.03
2024-04-07T14:53:14.992Z,100440.66
2024-04-07T14:55:41.176Z,100437.97
2024-04-07T14:58:07.580Z,100431.22
2024-04-07T15:00:33.787Z,100385.28
2024-04-07T15:03:00.213Z,100408.72
2024-04-07T15:05:26.980Z,100429.91
2024-04-07T15:07:55.971Z,100441.03
2024-04-07T15:10:22.105Z,100446.09
2024-04-07T15:12:48.617Z,100433.59
2024-04-07T15:15:14.743Z,100414.00
2024-04-07T15:17:41.169Z,100428.09
2024-04-07T15:20:07.456Z,100422.56
2024-04-07T15:22:34.800Z,100423.44
2024-04-07T15:25:01.082Z,100396.47
2024-04-07T15:27:27.428Z,100404.66
2024-04-07T15:29:57.272Z,100415.81
2024-04-07T15:32:23.635Z,100415.41
2024-04-07T15:34:49.699Z,100420.69
2024-04-07T15:37:16.579Z,100431.84
2024-04-07T15:39:43.414Z,100422.63
2024-04-07T15:42:09.804Z,100426.78
2024-04-07T15:44:35.899Z,100424.31
2024-04-07T15:47:02.161Z,100423.50
2024-04-07T15:49:28.623Z,100421.56
2024-04-07T15:51:55.225Z,100418.22
2024-04-07T15:54:21.617Z,100427.72
2024-04-07T15:56:48.600Z,100421.31
2024-04-07T15:59:21.163Z,100414.38
2024-04-07T16:01:48.232Z,100400.75
2024-04-07T16:04:14.329Z,100395.47
2024-04-07T16:06:43.587Z,100400.34
2024-04-07T16:09:11.510Z,100411.03
2024-04-07T16:11:38.142Z,100408.41
2024-04-07T16:14:04.989Z,100408.56
2024-04-07T16:16:31.382Z,100404.66
2024-04-07T16:18:57.732Z,100396.19
2024-04-07T16:21:24.127Z,100399.09
2024-04-07T16:23:50.213Z,100406.34
2024-04-07T16:26:17.150Z,100398.44
2024-04-07T16:28:43.315Z,100391.00
2024-04-07T16:31:10.196Z,100390.47
2024-04-07T16:33:38.743Z,100383.38
2024-04-07T16:36:05.407Z,100389.47
2024-04-07T16:38:31.636Z,100378.63
2024-04-07T16:40:59.938Z,100384.06
2024-04-07T16:43:26.690Z,100389.34
2024-04-07T16:45:53.404Z,100384.78
2024-04-07T16:49:49.626Z,100374.06
2024-04-07T16:52:16.031Z,100373.66
2024-04-07T16:54:44.584Z,100365.19
2024-04-07T16:57:12.098Z,100362.28
2024-04-07T16:59:42.888Z,100373.44
2024-04-07T17:02:09.382Z,100367.75
2024-04-07T17:04:38.005Z,100357.75
2024-04-07T17:07:06.605Z,100366.25
2024-04-07T17:09:35.443Z,100358.06
2024-04-07T17:12:01.873Z,100358.63
2024-04-07T17:14:30.374Z,100359.47
2024-04-07T17:16:58.491Z,100356.41
2024-04-07T17:19:26.967Z,100356.09
2024-04-07T17:21:53.774Z,100353.19
2024-04-07T17:24:24.315Z,100352.06
2024-04-07T17:26:50.910Z,100356.94
2024-04-07T17:29:19.456Z,100348.75
2024-04-07T17:31:48.313Z,100358.03
2024-04-07T17:34:14.930Z,100360.25
2024-04-07T17:36:44.631Z,100353.72
2024-04-07T17:39:11.371Z,100351.38
2024-04-07T17:41:43.942Z,100354.97
2024-04-07T17:44:10.425Z,100354.28
2024-04-07T17:46:38.964Z,100365.00
2024-04-07T17:49:05.398Z,100368.03
2024-04-07T17:51:33.823Z,100360.25
2024-04-07T17:54:00.325Z,100369.25
2024-04-07T17:56:29.201Z,100366.06
2024-04-07T17:58:57.729Z,100362.16
2024-04-07T18:01:26.529Z,100361.59
2024-04-07T18:03:53.209Z,100366.31
2024-04-07T18:06:22.566Z,100352.41
2024-04-07T18:08:49.171Z,100368.47
2024-04-07T18:11:17.812Z,100360.28
2024-04-07T18:13:45.631Z,100369.88
2024-04-07T18:16:17.067Z,100354.56
2024-04-07T18:18:43.511Z,100359.31
2024-04-07T18:21:12.163Z,100366.34
2024-04-07T18:23:38.646Z,100363.16
2024-04-07T18:26:08.032Z,100376.47
2024-04-07T18:28:34.539Z,100370.63
2024-04-07T18:31:03.894Z,100379.50
2024-04-07T18:33:36.544Z,100385.06
2024-04-07T18:36:05.238Z,100379.19
2024-04-07T18:38:31.631Z,100380.31
2024-04-07T18:41:00.188Z,100374.19
2024-04-07T18:43:26.604Z,100372.78
2024-04-07T18:45:55.097Z,100374.59
2024-04-07T18:48:21.465Z,100366.00
2024-04-07T18:51:01.645Z,100346.84
2024-04-07T18:53:28.276Z,100353.94
2024-04-07T18:55:56.874Z,100364.31
2024-04-07T18:58:23.563Z,100359.91
2024-04-07T19:00:53.623Z,100357.91
2024-04-07T19:03:20.282Z,100353.06
2024-04-07T19:05:51.207Z,100357.91
2024-04-07T19:08:19.954Z,100367.47
2024-04-07T19:10:48.958Z,100369.16
2024-04-07T19:13:15.905Z,100364.84
2024-04-07T19:15:44.704Z,100367.75
2024-04-07T19:18:12.059Z,100383.38
2024-04-07T19:20:40.648Z,100393.72
2024-04-07T19:23:07.302Z,100394.88
2024-04-07T19:25:37.839Z,100404.75
2024-04-07T19:28:04.867Z,100393.94
2024-04-07T19:30:33.488Z,100395.47
2024-04-07T19:33:01.507Z,100383.94
2024-04-07T19:35:30.137Z,100385.53
2024-04-07T19:38:00.024Z,100378.03
2024-04-07T19:40:30.095Z,100384.53
2024-04-07T19:42:58.616Z,100378.66
2024-04-07T19:45:27.216Z,100382.88
2024-04-07T19:47:53.784Z,100379.19
2024-04-07T19:50:22.695Z,100378.81
2024-04-07T19:52:52.017Z,100378.69
2024-04-07T19:55:20.532Z,100375.19
2024-04-07T19:57:47.145Z,100370.53
2024-04-07T20:00:18.851Z,100365.75
2024-04-07T20:02:46.926Z,100359.19
2024-04-07T20:05:16.339Z,100359.88
2024-04-07T20:07:42.950Z,100373.13
2024-04-07T20:10:11.913Z,100373.56
2024-04-07T20:12:38.943Z,100370.72
2024-04-07T20:15:09.103Z,100363.53
2024-04-07T20:17:37.849Z,100365.66
2024-04-07T20:20:06.966Z,100353.97
2024-04-07T20:22:37.125Z,100345.09
2024-04-07T20:25:10.599Z,100330.19
2024-04-07T20:27:37.114Z,100319.72
2024-04-07T20:30:06.304Z,100324.09
2024-04-07T20:32:32.742Z,100325.09
2024-04-07T20:35:03.408Z,100324.31
2024-04-07T20:37:30.100Z,100315.66
2024-04-07T20:40:00.144Z,100311.81
2024-04-07T20:42:26.640Z,100323.44
2024-04-07T20:44:55.434Z,100325.47
2024-04-07T20:47:22.248Z,100307.44
2024-04-07T20:49:51.024Z,100311.84
2024-04-07T20:52:19.883Z,100315.09
2024-04-07T20:54:49.186Z,100315.22
2024-04-07T20:57:15.705Z,100319.50
2024-04-07T20:59:44.171Z,100326.28
2024-04-07T21:02:10.915Z,100325.34
2024-04-07T21:04:40.889Z,100330.38
2024-04-07T21:07:07.426Z,100327.00
2024-04-07T21:09:38.074Z,100329.13
2024-04-07T21:12:05.932Z,100336.47
2024-04-07T21:14:35.040Z,100339.00
2024-04-07T21:17:01.540Z,100337.84
2024-04-07T21:19:30.037Z,100342.72
2024-04-07T21:21:56.535Z,100355.38
2024-04-07T21:24:25.170Z,100367.31
2024-04-07T21:26:53.658Z,100360.94
2024-04-07T21:29:22.354Z,100358.09
2024-04-07T21:31:51.279Z,100347.59
2024-04-07T21:34:19.728Z,100359.75
2024-04-07T21:36:46.188Z,100362.59
2024-04-07T21:39:14.846Z,100385.44
2024-04-07T21:41:41.261Z,100379.47
2024-04-07T21:44:11.570Z,100391.47
2024-04-07T21:46:39.720Z,100386.44
2024-04-07T21:49:11.498Z,100383.38
2024-04-07T21:51:37.925Z,100381.09
2024-04-07T21:54:06.207Z,100377.31
2024-04-07T21:56:32.633Z,100379.13
2024-04-07T21:59:01.205Z,100372.09
2024-04-07T22:01:29.907Z,100373.03
2024-04-07T22:03:58.323Z,100378.28
2024-04-07T22:06:24.846Z,100394.94
2024-04-07T22:08:53.334Z,100405.41
2024-04-07T22:11:19.742Z,100409.81
2024-04-07T22:13:47.949Z,100400.41
2024-04-07T22:16:14.393Z,100404.56
2024-04-07T22:18:44.647Z,100392.84
2024-04-07T22:21:11.064Z,100373.69
2024-04-07T22:23:39.320Z,100377.94
2024-04-07T22:26:05.709Z,100376.59
2024-04-07T22:28:33.981Z,100363.75
2024-04-07T22:31:00.736Z,100365.50
2024-04-07T22:33:29.644Z,100366.44
2024-04-07T22:35:58.122Z,100361.41
2024-04-07T22:38:26.550Z,100365.09
2024-04-07T22:40:52.987Z,100368.53
2024-04-07T22:43:21.192Z,100374.19
2024-04-07T22:45:48.615Z,100368.75
2024-04-07T22:48:17.026Z,100356.59
2024-04-07T22:50:43.465Z,100360.16
2024-04-07T22:53:13.729Z,100344.66
2024-04-07T22:55:40.324Z,100317.56
2024-04-07T22:58:08.811Z,100324.81
2024-04-07T23:00:38.918Z,100322.28
2024-04-07T23:03:07.579Z,100322.50
2024-04-07T23:05:34.307Z,100321.66
2024-04-07T23:08:02.852Z,100320.81
2024-04-07T23:10:31.866Z,100316.31
2024-04-07T23:13:01.873Z,100318.00
2024-04-07T23:15:28.330Z,100327.31
2024-04-07T23:17:56.548Z,100327.50
2024-04-07T23:20:23.161Z,100323.53
2024-04-07T23:22:51.613Z,100316.22
2024-04-07T23:25:18.032Z,100311.94
2024-04-07T23:27:48.888Z,100316.09
2024-04-07T23:30:15.855Z,100311.41
2024-04-07T23:32:44.697Z,100302.63
2024-04-07T23:35:11.178Z,100298.53
2024-04-07T23:37:39.381Z,100296.75
2024-04-07T23:40:09.339Z,100301.97
2024-04-07T23:42:39.270Z,100301.44
2024-04-07T23:45:07.923Z,100301.16
2024-04-07T23:47:37.456Z,100292.25
2024-04-07T23:50:04.533Z,100298.19
2024-04-07T23:52:32.996Z,100293.47
2024-04-07T23:54:59.360Z,100291.56
2024-04-07T23:57:27.789Z,100285.81
2024-04-07T23:59:54.163Z,100282.53
